Time;durP1;ratioP1;P1;durP2;ratioP2;P2;SDS_P1;SDS_P2;PMS_P1;PMS_P2;Temp;Humidity;BMP_temperature;BMP_pressure;BME280_temperature;BME280_humidity;BME280_pressure;Samples;Min_cycle;Max_cycle;Signal;HPM_P1;HPM_P2
2023/09/06 00:02:16;;;;;;;8.63;5.60;;;;;;;;;;5099275;28;20079;-65
2023/09/06 00:04:43;;;;;;;9.00;6.03;;;;;;;;;;5106063;28;20390;-66
2023/09/06 00:07:10;;;;;;;8.38;6.25;;;;;;;;;;5100031;28;20059;-66
2023/09/06 00:09:37;;;;;;;12.45;6.30;;;;;;;;;;5110507;28;20097;-65
2023/09/06 00:12:05;;;;;;;9.38;6.38;;;;;;;;;;5097809;28;20067;-66
2023/09/06 00:14:36;;;;;;;9.18;6.18;;;;;;;;;;5101064;28;20047;-66
2023/09/06 00:17:04;;;;;;;7.88;5.90;;;;;;;;;;5110809;28;20460;-66
2023/09/06 00:19:32;;;;;;;8.25;5.97;;;;;;;;;;5099405;27;20131;-66
2023/09/06 00:21:59;;;;;;;7.72;6.07;;;;;;;;;;5114579;27;20043;-66
2023/09/06 00:24:26;;;;;;;7.72;6.00;;;;;;;;;;5083329;28;20071;-66
2023/09/06 00:26:57;;;;;;;10.05;6.30;;;;;;;;;;5108256;27;20048;-66
2023/09/06 00:29:25;;;;;;;8.18;6.53;;;;;;;;;;5112739;28;20048;-66
2023/09/06 00:31:53;;;;;;;10.00;6.55;;;;;;;;;;5107738;28;20052;-66
2023/09/06 00:34:21;;;;;;;8.32;6.68;;;;;;;;;;5111806;28;20044;-66
2023/09/06 00:36:48;;;;;;;10.05;7.03;;;;;;;;;;5114983;27;20047;-66
2023/09/06 00:39:15;;;;;;;8.77;6.55;;;;;;;;;;5086080;27;20056;-66
2023/09/06 00:41:44;;;;;;;9.07;6.80;;;;;;;;;;5112167;27;20039;-66
2023/09/06 00:44:12;;;;;;;9.15;6.65;;;;;;;;;;5107344;28;20043;-66
2023/09/06 00:46:39;;;;;;;7.90;6.05;;;;;;;;;;5108330;28;20051;-66
2023/09/06 00:49:08;;;;;;;8.52;6.22;;;;;;;;;;5107216;27;20043;-66
2023/09/06 00:51:35;;;;;;;8.77;6.20;;;;;;;;;;5114717;27;20047;-66
2023/09/06 00:54:03;;;;;;;7.55;6.20;;;;;;;;;;5110567;27;20052;-66
2023/09/06 00:56:33;;;;;;;9.75;6.70;;;;;;;;;;5105605;27;20109;-66
2023/09/06 00:59:01;;;;;;;9.10;6.50;;;;;;;;;;5104101;27;20047;-66
2023/09/06 01:01:28;;;;;;;8.43;6.47;;;;;;;;;;5111529;28;20058;-66
2023/09/06 01:03:56;;;;;;;8.13;6.13;;;;;;;;;;5108469;27;20043;-66
2023/09/06 01:06:27;;;;;;;8.80;6.43;;;;;;;;;;5103813;28;20509;-66
2023/09/06 01:08:56;;;;;;;8.65;6.32;;;;;;;;;;5103881;27;20077;-66
2023/09/06 01:11:25;;;;;;;8.63;5.88;;;;;;;;;;5101233;28;20051;-66
2023/09/06 01:13:53;;;;;;;8.43;5.60;;;;;;;;;;5102201;27;21065;-66
2023/09/06 01:16:23;;;;;;;8.52;5.72;;;;;;;;;;5105407;27;20410;-66
2023/09/06 01:18:50;;;;;;;10.40;6.70;;;;;;;;;;5112131;27;20047;-66
2023/09/06 01:21:19;;;;;;;9.73;6.07;;;;;;;;;;5104494;27;20052;-66
2023/09/06 01:23:48;;;;;;;8.00;5.97;;;;;;;;;;5100397;28;20040;-66
2023/09/06 01:26:15;;;;;;;8.15;6.07;;;;;;;;;;5108726;27;20047;-66
2023/09/06 01:28:43;;;;;;;7.68;5.82;;;;;;;;;;5096891;27;20403;-66
2023/09/06 01:31:10;;;;;;;9.10;6.55;;;;;;;;;;5101115;28;20051;-66
2023/09/06 01:33:39;;;;;;;7.35;5.43;;;;;;;;;;5110960;28;20052;-66
2023/09/06 01:36:06;;;;;;;8.20;5.72;;;;;;;;;;5108379;28;20052;-66
2023/09/06 01:38:34;;;;;;;11.82;6.28;;;;;;;;;;5087335;28;20387;-66
2023/09/06 01:41:04;;;;;;;7.95;5.75;;;;;;;;;;5108345;28;20399;-66
2023/09/06 01:43:32;;;;;;;8.10;5.97;;;;;;;;;;5111619;28;20051;-66
2023/09/06 01:45:59;;;;;;;10.23;5.72;;;;;;;;;;5106005;28;20044;-66
2023/09/06 01:48:26;;;;;;;8.48;5.95;;;;;;;;;;5100702;27;20083;-65
2023/09/06 01:50:55;;;;;;;9.40;6.38;;;;;;;;;;5112373;27;20039;-66
2023/09/06 01:53:23;;;;;;;7.90;6.25;;;;;;;;;;5110493;27;20616;-66
2023/09/06 01:55:51;;;;;;;9.48;6.45;;;;;;;;;;5106138;28;20043;-66
2023/09/06 01:58:19;;;;;;;7.28;5.85;;;;;;;;;;5083146;27;20044;-66
2023/09/06 02:00:47;;;;;;;7.18;5.63;;;;;;;;;;5107920;27;20126;-66
2023/09/06 02:03:16;;;;;;;8.88;6.07;;;;;;;;;;5099196;28;20546;-66
2023/09/06 02:05:43;;;;;;;9.02;6.13;;;;;;;;;;5102152;27;20201;-65
2023/09/06 02:08:10;;;;;;;8.85;6.10;;;;;;;;;;5107586;27;20078;-65
2023/09/06 02:10:38;;;;;;;8.77;6.43;;;;;;;;;;5102301;27;20402;-65
2023/09/06 02:13:05;;;;;;;8.82;5.95;;;;;;;;;;5105784;28;20054;-66
2023/09/06 02:15:34;;;;;;;8.80;6.40;;;;;;;;;;5100392;28;20117;-65
2023/09/06 02:18:01;;;;;;;9.05;6.63;;;;;;;;;;5100741;28;20052;-65
2023/09/06 02:20:28;;;;;;;10.68;6.40;;;;;;;;;;5106566;27;20040;-65
2023/09/06 02:22:56;;;;;;;10.05;6.95;;;;;;;;;;5104872;27;20048;-66
2023/09/06 02:25:24;;;;;;;7.80;5.97;;;;;;;;;;5088610;27;20075;-66
2023/09/06 02:27:52;;;;;;;7.63;5.55;;;;;;;;;;5096277;28;20459;-66
2023/09/06 02:30:20;;;;;;;7.20;5.93;;;;;;;;;;5101831;27;20059;-66
2023/09/06 02:32:49;;;;;;;8.40;6.50;;;;;;;;;;5100585;27;20052;-65
2023/09/06 02:35:16;;;;;;;7.80;5.88;;;;;;;;;;5089905;28;20048;-65
2023/09/06 02:37:43;;;;;;;8.88;6.03;;;;;;;;;;5104009;27;20126;-66
2023/09/06 02:40:12;;;;;;;8.85;6.45;;;;;;;;;;5108923;27;20437;-66
2023/09/06 02:42:39;;;;;;;11.38;5.95;;;;;;;;;;5086939;28;20734;-66
2023/09/06 02:45:09;;;;;;;7.55;6.05;;;;;;;;;;5109712;28;20043;-65
2023/09/06 02:47:38;;;;;;;9.32;6.88;;;;;;;;;;5094274;28;20039;-65
2023/09/06 02:50:11;;;;;;;11.63;7.35;;;;;;;;;;5100362;27;20047;-65
2023/09/06 02:52:38;;;;;;;8.63;6.53;;;;;;;;;;5092755;27;20130;-65
2023/09/06 02:55:10;;;;;;;11.40;7.05;;;;;;;;;;5104034;27;20040;-66
2023/09/06 02:57:38;;;;;;;9.25;6.63;;;;;;;;;;5108411;27;20399;-65
2023/09/06 03:00:18;;;;;;;10.98;6.57;;;;;;;;;;5101749;28;20074;-65
2023/09/06 03:02:46;;;;;;;10.63;7.45;;;;;;;;;;5111229;28;20104;-65
2023/09/06 03:05:17;;;;;;;11.55;7.20;;;;;;;;;;5096063;28;20056;-65
2023/09/06 03:07:49;;;;;;;8.68;6.78;;;;;;;;;;5103096;28;20048;-66
2023/09/06 03:10:19;;;;;;;10.00;6.75;;;;;;;;;;5105262;27;20040;-65
2023/09/06 03:12:47;;;;;;;9.00;6.57;;;;;;;;;;5099153;28;20046;-65
2023/09/06 03:15:15;;;;;;;9.25;6.75;;;;;;;;;;5099137;28;20040;-66
2023/09/06 03:17:46;;;;;;;10.65;6.85;;;;;;;;;;5106547;28;20051;-65
2023/09/06 03:20:31;;;;;;;9.82;6.85;;;;;;;;;;5104810;28;20093;-65
2023/09/06 03:22:59;;;;;;;10.00;7.07;;;;;;;;;;5104385;28;20056;-66
2023/09/06 03:25:27;;;;;;;9.40;7.32;;;;;;;;;;5112892;27;20077;-65
2023/09/06 03:28:00;;;;;;;8.63;6.88;;;;;;;;;;5096853;28;20052;-66
2023/09/06 03:30:28;;;;;;;9.52;6.95;;;;;;;;;;5097991;28;20055;-65
2023/09/06 03:32:55;;;;;;;9.85;7.00;;;;;;;;;;5096742;28;20052;-65
2023/09/06 03:35:24;;;;;;;9.43;6.78;;;;;;;;;;5093223;28;20403;-66
2023/09/06 03:37:51;;;;;;;11.05;7.50;;;;;;;;;;5110518;28;20490;-65
2023/09/06 03:40:34;;;;;;;10.13;6.93;;;;;;;;;;5109438;28;20061;-65
2023/09/06 03:43:04;;;;;;;13.40;7.28;;;;;;;;;;5107928;28;20055;-65
2023/09/06 03:45:31;;;;;;;9.10;6.80;;;;;;;;;;5100530;28;20124;-65
2023/09/06 03:48:00;;;;;;;10.32;7.07;;;;;;;;;;5108996;28;20058;-65
2023/09/06 03:50:29;;;;;;;8.38;6.95;;;;;;;;;;5096999;28;20050;-66
2023/09/06 03:52:57;;;;;;;9.40;6.90;;;;;;;;;;5099343;28;20048;-65
2023/09/06 03:55:25;;;;;;;8.52;6.05;;;;;;;;;;5103953;28;20035;-66
2023/09/06 03:57:53;;;;;;;9.57;6.43;;;;;;;;;;5104503;28;20080;-65
2023/09/06 04:00:24;;;;;;;8.80;6.90;;;;;;;;;;5107052;28;20093;-65
2023/09/06 04:02:53;;;;;;;9.55;6.80;;;;;;;;;;5113458;28;20767;-66
2023/09/06 04:05:25;;;;;;;8.23;6.53;;;;;;;;;;5108068;28;20059;-65
2023/09/06 04:07:55;;;;;;;13.27;6.47;;;;;;;;;;5108739;28;20044;-65
2023/09/06 04:10:23;;;;;;;10.30;7.30;;;;;;;;;;5099910;28;20106;-65
2023/09/06 04:12:53;;;;;;;10.23;6.90;;;;;;;;;;5106347;28;20389;-66
2023/09/06 04:15:21;;;;;;;10.43;7.28;;;;;;;;;;5106072;28;20236;-65
2023/09/06 04:17:50;;;;;;;8.88;7.05;;;;;;;;;;5109276;28;20493;-65
2023/09/06 04:20:21;;;;;;;10.13;6.80;;;;;;;;;;5104936;28;20048;-65
2023/09/06 04:22:48;;;;;;;10.50;7.20;;;;;;;;;;5106729;28;20040;-66
2023/09/06 04:25:18;;;;;;;9.13;6.38;;;;;;;;;;5105141;28;20475;-65
2023/09/06 04:27:46;;;;;;;9.27;6.40;;;;;;;;;;5107679;28;20135;-65
2023/09/06 04:30:16;;;;;;;9.55;6.65;;;;;;;;;;5100311;28;20047;-65
2023/09/06 04:32:45;;;;;;;12.43;6.68;;;;;;;;;;5103727;28;20044;-65
2023/09/06 04:35:12;;;;;;;10.05;6.80;;;;;;;;;;5096403;28;20044;-65
2023/09/06 04:37:40;;;;;;;8.35;6.15;;;;;;;;;;5105427;28;20043;-65
2023/09/06 04:40:09;;;;;;;8.02;6.45;;;;;;;;;;5096595;28;20052;-65
2023/09/06 04:42:37;;;;;;;9.23;6.35;;;;;;;;;;5105074;28;20047;-65
2023/09/06 04:45:05;;;;;;;8.95;6.13;;;;;;;;;;5106374;28;20046;-65
2023/09/06 04:47:32;;;;;;;8.73;5.72;;;;;;;;;;5105092;28;20392;-65
2023/09/06 04:50:00;;;;;;;8.27;5.68;;;;;;;;;;5097782;28;20047;-66
2023/09/06 04:52:27;;;;;;;7.03;5.15;;;;;;;;;;5100100;28;20060;-65
2023/09/06 04:54:55;;;;;;;6.38;5.03;;;;;;;;;;5102576;28;20433;-65
2023/09/06 04:57:22;;;;;;;7.03;5.32;;;;;;;;;;5103058;28;20051;-66
2023/09/06 04:59:51;;;;;;;6.70;5.20;;;;;;;;;;5102766;28;20047;-65
2023/09/06 05:02:18;;;;;;;6.30;4.97;;;;;;;;;;5108810;28;20051;-65
2023/09/06 05:04:45;;;;;;;6.00;4.50;;;;;;;;;;5114304;27;20050;-65
2023/09/06 05:07:13;;;;;;;6.72;4.72;;;;;;;;;;5108437;28;20048;-65
2023/09/06 05:09:40;;;;;;;7.18;4.93;;;;;;;;;;5109331;28;20051;-65
2023/09/06 05:12:07;;;;;;;8.63;4.32;;;;;;;;;;5107616;27;20044;-65
2023/09/06 05:14:35;;;;;;;6.15;4.80;;;;;;;;;;5102409;28;20047;-65
2023/09/06 05:17:03;;;;;;;7.32;4.80;;;;;;;;;;5110394;28;20414;-65
2023/09/06 05:19:30;;;;;;;6.72;4.80;;;;;;;;;;5104416;28;20060;-65
2023/09/06 05:21:58;;;;;;;7.75;4.82;;;;;;;;;;5107232;27;20058;-65
2023/09/06 05:24:26;;;;;;;9.98;5.18;;;;;;;;;;5101409;27;20134;-65
2023/09/06 05:26:53;;;;;;;7.13;5.25;;;;;;;;;;5108254;27;20086;-65
2023/09/06 05:29:20;;;;;;;8.60;5.45;;;;;;;;;;5085442;28;20056;-65
2023/09/06 05:31:47;;;;;;;7.55;4.97;;;;;;;;;;5106577;27;20076;-65
2023/09/06 05:34:16;;;;;;;6.43;4.85;;;;;;;;;;5100957;28;20044;-65
2023/09/06 05:36:43;;;;;;;6.90;5.05;;;;;;;;;;5108855;28;20052;-65
2023/09/06 05:39:12;;;;;;;8.20;5.05;;;;;;;;;;5089790;28;20055;-65
2023/09/06 05:41:39;;;;;;;7.13;4.80;;;;;;;;;;5109532;28;20132;-65
2023/09/06 05:44:07;;;;;;;6.25;5.03;;;;;;;;;;5110131;27;20066;-65
2023/09/06 05:46:34;;;;;;;6.85;4.88;;;;;;;;;;5108151;28;20075;-65
2023/09/06 05:49:02;;;;;;;7.60;4.68;;;;;;;;;;5096344;27;20048;-65
2023/09/06 05:51:30;;;;;;;8.10;4.85;;;;;;;;;;5101260;28;20052;-65
2023/09/06 05:53:58;;;;;;;6.75;4.68;;;;;;;;;;5099967;27;20055;-65
2023/09/06 05:56:26;;;;;;;7.47;4.78;;;;;;;;;;5107268;28;20055;-65
2023/09/06 05:58:53;;;;;;;7.60;5.10;;;;;;;;;;5105534;28;20078;-65
2023/09/06 06:01:21;;;;;;;7.22;4.88;;;;;;;;;;5105755;27;20048;-65
2023/09/06 06:03:48;;;;;;;6.18;4.32;;;;;;;;;;5096213;28;20098;-65
2023/09/06 06:06:17;;;;;;;6.70;4.82;;;;;;;;;;5104213;28;20043;-66
2023/09/06 06:08:45;;;;;;;7.30;5.25;;;;;;;;;;5106201;27;20122;-65
2023/09/06 06:11:13;;;;;;;9.98;5.13;;;;;;;;;;5102194;27;20055;-65
2023/09/06 06:13:40;;;;;;;6.80;4.70;;;;;;;;;;5079445;28;20058;-65
2023/09/06 06:16:08;;;;;;;7.25;4.47;;;;;;;;;;5109668;27;20074;-65
2023/09/06 06:18:35;;;;;;;5.50;3.83;;;;;;;;;;5088285;28;20044;-65
2023/09/06 06:21:03;;;;;;;6.65;4.43;;;;;;;;;;5108971;28;20047;-65
2023/09/06 06:23:31;;;;;;;6.10;4.63;;;;;;;;;;5102697;28;20391;-65
2023/09/06 06:25:59;;;;;;;6.07;4.25;;;;;;;;;;5102350;28;20059;-65
2023/09/06 06:28:27;;;;;;;7.72;4.97;;;;;;;;;;5109941;27;20047;-65
2023/09/06 06:30:54;;;;;;;9.93;4.72;;;;;;;;;;5111457;27;20052;-65
2023/09/06 06:33:21;;;;;;;5.65;4.70;;;;;;;;;;5110599;27;20131;-65
2023/09/06 06:35:48;;;;;;;7.40;5.00;;;;;;;;;;5101755;27;20391;-65
2023/09/06 06:38:16;;;;;;;6.32;4.38;;;;;;;;;;5101407;28;20055;-65
2023/09/06 06:40:43;;;;;;;11.95;4.57;;;;;;;;;;5101968;27;20074;-67
2023/09/06 06:43:12;;;;;;;6.07;4.50;;;;;;;;;;5113341;27;20051;-67
2023/09/06 06:45:39;;;;;;;9.23;4.82;;;;;;;;;;5107399;28;20044;-66
2023/09/06 06:48:06;;;;;;;6.85;4.70;;;;;;;;;;5107193;28;20548;-66
2023/09/06 06:50:34;;;;;;;10.25;6.30;;;;;;;;;;5106995;27;20056;-66
2023/09/06 06:53:01;;;;;;;10.73;6.07;;;;;;;;;;5105710;27;20054;-67
2023/09/06 06:55:28;;;;;;;10.80;6.70;;;;;;;;;;5109959;28;20055;-66
2023/09/06 06:57:56;;;;;;;9.98;5.60;;;;;;;;;;5082977;28;20048;-66
2023/09/06 07:00:24;;;;;;;10.07;5.55;;;;;;;;;;5110102;27;20573;-66
2023/09/06 07:02:52;;;;;;;8.18;5.43;;;;;;;;;;5110506;28;20044;-66
2023/09/06 07:05:19;;;;;;;10.63;5.50;;;;;;;;;;5107125;27;20039;-66
2023/09/06 07:07:46;;;;;;;10.18;5.05;;;;;;;;;;5100283;28;20043;-66
2023/09/06 07:10:14;;;;;;;10.10;4.55;;;;;;;;;;5107174;28;20043;-67
2023/09/06 07:12:42;;;;;;;10.25;3.97;;;;;;;;;;5085120;28;20048;-66
2023/09/06 07:15:09;;;;;;;5.65;4.10;;;;;;;;;;5104635;28;20534;-66
2023/09/06 07:17:38;;;;;;;5.32;3.80;;;;;;;;;;5103694;28;20048;-66
2023/09/06 07:20:06;;;;;;;6.78;3.65;;;;;;;;;;5104412;28;20497;-66
2023/09/06 07:22:33;;;;;;;6.07;3.40;;;;;;;;;;5097918;28;20403;-66
2023/09/06 07:25:00;;;;;;;4.53;3.22;;;;;;;;;;5105789;28;20047;-66
2023/09/06 07:27:27;;;;;;;5.55;3.28;;;;;;;;;;5102518;27;20055;-66
2023/09/06 07:29:55;;;;;;;7.22;2.95;;;;;;;;;;5101707;28;20056;-66
2023/09/06 07:32:22;;;;;;;7.97;3.28;;;;;;;;;;5099679;28;20051;-67
2023/09/06 07:34:51;;;;;;;4.60;3.05;;;;;;;;;;5097470;28;20044;-66
2023/09/06 07:37:20;;;;;;;4.65;3.20;;;;;;;;;;5100556;28;20054;-67
2023/09/06 07:39:47;;;;;;;4.55;2.70;;;;;;;;;;5100561;28;20068;-66
2023/09/06 07:42:14;;;;;;;7.65;2.80;;;;;;;;;;5103573;28;20071;-67
2023/09/06 07:44:41;;;;;;;5.07;3.25;;;;;;;;;;5107024;28;20051;-67
2023/09/06 07:47:08;;;;;;;4.50;3.15;;;;;;;;;;5104431;28;20043;-67
2023/09/06 07:49:36;;;;;;;4.45;3.00;;;;;;;;;;5105534;28;20051;-66
2023/09/06 07:52:05;;;;;;;6.32;3.38;;;;;;;;;;5110042;28;20051;-66
2023/09/06 07:54:32;;;;;;;4.20;3.40;;;;;;;;;;5098148;28;20048;-66
2023/09/06 07:56:59;;;;;;;4.90;3.28;;;;;;;;;;5105080;28;20040;-66
2023/09/06 07:59:26;;;;;;;5.40;3.30;;;;;;;;;;5102168;28;20157;-67
2023/09/06 08:01:54;;;;;;;4.82;3.13;;;;;;;;;;5091652;28;20062;-66
2023/09/06 08:04:21;;;;;;;5.78;3.55;;;;;;;;;;5085712;28;20056;-67
2023/09/06 08:06:48;;;;;;;4.47;3.05;;;;;;;;;;5104228;28;20463;-66
2023/09/06 08:09:17;;;;;;;4.88;2.72;;;;;;;;;;5099702;28;20048;-66
2023/09/06 08:11:44;;;;;;;4.68;3.10;;;;;;;;;;5103993;28;20059;-66
2023/09/06 08:14:11;;;;;;;6.32;2.90;;;;;;;;;;5101528;28;20402;-66
2023/09/06 08:16:39;;;;;;;3.58;2.40;;;;;;;;;;5111244;28;20044;-66
2023/09/06 08:19:06;;;;;;;5.00;3.10;;;;;;;;;;5100306;28;20046;-66
2023/09/06 08:21:33;;;;;;;4.63;3.05;;;;;;;;;;5106219;28;20510;-66
2023/09/06 08:24:02;;;;;;;6.57;2.88;;;;;;;;;;5094134;28;20043;-65
2023/09/06 08:26:31;;;;;;;7.07;3.58;;;;;;;;;;5101115;28;20093;-66
2023/09/06 08:28:58;;;;;;;5.00;2.80;;;;;;;;;;5097188;28;20468;-66
2023/09/06 08:31:26;;;;;;;3.55;2.60;;;;;;;;;;5111316;28;20047;-66
2023/09/06 08:33:53;;;;;;;4.93;2.60;;;;;;;;;;5105652;28;20040;-66
2023/09/06 08:36:20;;;;;;;4.80;3.08;;;;;;;;;;5105521;28;20133;-66
2023/09/06 08:38:47;;;;;;;4.70;2.45;;;;;;;;;;5084779;28;20055;-65
2023/09/06 08:41:15;;;;;;;5.35;2.83;;;;;;;;;;5104941;27;20055;-65
2023/09/06 08:43:44;;;;;;;3.65;2.75;;;;;;;;;;5102903;27;20051;-66
2023/09/06 08:46:16;;;;;;;3.78;2.47;;;;;;;;;;5099441;28;20047;-66
2023/09/06 08:48:43;;;;;;;4.20;2.80;;;;;;;;;;5088540;28;20055;-66
2023/09/06 08:51:11;;;;;;;4.75;2.85;;;;;;;;;;5103619;27;20043;-66
2023/09/06 08:53:39;;;;;;;5.50;2.85;;;;;;;;;;5104116;28;20056;-66
2023/09/06 08:56:07;;;;;;;4.57;2.65;;;;;;;;;;5105665;27;20039;-66
2023/09/06 08:58:35;;;;;;;5.15;3.30;;;;;;;;;;5092122;27;20071;-66
2023/09/06 09:01:04;;;;;;;3.97;2.55;;;;;;;;;;5102888;28;20120;-66
2023/09/06 09:03:32;;;;;;;5.30;3.25;;;;;;;;;;5106678;27;20105;-65
2023/09/06 09:06:00;;;;;;;4.97;3.05;;;;;;;;;;5105512;27;20108;-66
2023/09/06 09:08:30;;;;;;;4.00;2.85;;;;;;;;;;5109553;28;20098;-66
2023/09/06 09:11:08;;;;;;;3.65;2.58;;;;;;;;;;5105201;27;20047;-66
2023/09/06 09:13:35;;;;;;;4.35;3.00;;;;;;;;;;5101388;27;20044;-66
2023/09/06 09:16:08;;;;;;;5.80;3.08;;;;;;;;;;5081066;28;20376;-66
2023/09/06 09:18:36;;;;;;;4.97;2.90;;;;;;;;;;5103337;27;20819;-66
2023/09/06 09:21:03;;;;;;;6.22;2.80;;;;;;;;;;5104958;27;20066;-66
2023/09/06 09:23:31;;;;;;;4.63;3.25;;;;;;;;;;5105357;28;20531;-66
2023/09/06 09:25:58;;;;;;;3.83;2.53;;;;;;;;;;5112558;27;20055;-66
2023/09/06 09:28:26;;;;;;;4.43;2.30;;;;;;;;;;5109205;28;20056;-66
2023/09/06 09:30:53;;;;;;;3.15;2.53;;;;;;;;;;5083727;28;20063;-66
2023/09/06 09:33:27;;;;;;;4.68;2.42;;;;;;;;;;5107628;27;20136;-66
2023/09/06 09:35:55;;;;;;;3.78;2.83;;;;;;;;;;5104847;28;20047;-65
2023/09/06 09:38:22;;;;;;;4.18;2.50;;;;;;;;;;5112298;28;20066;-66
2023/09/06 09:41:04;;;;;;;4.07;2.47;;;;;;;;;;5105454;27;20090;-66
2023/09/06 09:43:31;;;;;;;4.22;2.70;;;;;;;;;;5100492;27;20059;-66
2023/09/06 09:45:59;;;;;;;3.88;2.30;;;;;;;;;;5097342;28;20048;-67
2023/09/06 09:48:30;;;;;;;3.97;2.50;;;;;;;;;;5093272;28;20051;-66
2023/09/06 09:50:57;;;;;;;4.55;2.55;;;;;;;;;;5102407;28;20101;-66
2023/09/06 09:53:25;;;;;;;4.57;2.63;;;;;;;;;;5104676;28;20043;-67
2023/09/06 09:55:54;;;;;;;3.50;2.22;;;;;;;;;;5084803;28;20056;-67
2023/09/06 09:58:21;;;;;;;4.68;2.53;;;;;;;;;;5103474;27;20044;-66
2023/09/06 10:00:50;;;;;;;2.92;2.30;;;;;;;;;;5107703;27;20051;-67
2023/09/06 10:03:17;;;;;;;2.60;2.00;;;;;;;;;;5098944;28;20044;-67
2023/09/06 10:05:47;;;;;;;2.70;1.92;;;;;;;;;;5107560;27;20130;-67
2023/09/06 10:08:14;;;;;;;3.65;2.08;;;;;;;;;;5109634;27;20490;-66
2023/09/06 10:10:42;;;;;;;6.55;2.22;;;;;;;;;;5107732;27;20059;-66
2023/09/06 10:13:10;;;;;;;3.30;1.90;;;;;;;;;;5101580;27;20054;-66
2023/09/06 10:15:37;;;;;;;5.32;2.25;;;;;;;;;;5109705;27;20513;-67
2023/09/06 10:18:06;;;;;;;2.35;1.70;;;;;;;;;;5106333;27;20070;-66
2023/09/06 10:20:34;;;;;;;3.92;2.15;;;;;;;;;;5096107;28;20054;-66
2023/09/06 10:23:04;;;;;;;4.85;2.20;;;;;;;;;;5108237;27;20132;-67
2023/09/06 10:25:32;;;;;;;4.60;1.60;;;;;;;;;;5101564;28;20136;-66
2023/09/06 10:28:00;;;;;;;2.78;2.03;;;;;;;;;;5103077;27;20051;-66
2023/09/06 10:30:42;;;;;;;5.18;1.90;;;;;;;;;;5101488;27;20051;-66
2023/09/06 10:33:09;;;;;;;3.00;2.00;;;;;;;;;;5106524;27;20043;-66
2023/09/06 10:35:42;;;;;;;5.53;2.33;;;;;;;;;;5096068;28;20047;-66
2023/09/06 10:38:10;;;;;;;;;;;;;;;;;;5100791;28;20051;-67
2023/09/06 10:40:56;;;;;;;18.60;4.88;;;;;;;;;;5099880;28;19928;-65
2023/09/06 10:43:29;;;;;;;5.15;2.47;;;;;;;;;;5105323;27;20047;-66
2023/09/06 10:45:56;;;;;;;8.90;2.70;;;;;;;;;;5098590;28;20521;-67
2023/09/06 10:48:23;;;;;;;2.67;1.90;;;;;;;;;;5098867;27;20061;-67
2023/09/06 10:51:04;;;;;;;6.82;1.67;;;;;;;;;;5103921;27;20066;-66
2023/09/06 10:53:32;;;;;;;2.45;1.65;;;;;;;;;;5087838;28;20055;-66
2023/09/06 10:56:01;;;;;;;3.50;2.03;;;;;;;;;;5103278;27;20718;-66
2023/09/06 10:58:30;;;;;;;1.92;1.50;;;;;;;;;;5106079;27;20514;-66
2023/09/06 11:01:17;;;;;;;2.42;1.55;;;;;;;;;;5110364;27;20047;-66
2023/09/06 11:03:48;;;;;;;2.33;1.60;;;;;;;;;;5106957;28;20048;-66
2023/09/06 11:06:15;;;;;;;2.67;1.73;;;;;;;;;;5091002;28;20047;-66
2023/09/06 11:08:43;;;;;;;2.50;1.52;;;;;;;;;;5104509;27;20043;-66
2023/09/06 11:11:12;;;;;;;2.35;1.52;;;;;;;;;;5104498;27;20052;-66
2023/09/06 11:13:42;;;;;;;1.73;1.52;;;;;;;;;;5085502;28;20399;-66
2023/09/06 11:16:12;;;;;;;4.90;1.80;;;;;;;;;;5108489;28;20044;-66
2023/09/06 11:18:46;;;;;;;2.13;1.30;;;;;;;;;;5114418;27;20039;-66
2023/09/06 11:21:18;;;;;;;2.45;1.50;;;;;;;;;;5113335;27;20051;-67
2023/09/06 11:23:46;;;;;;;2.05;1.48;;;;;;;;;;5102557;28;20509;-66
2023/09/06 11:26:13;;;;;;;2.33;1.65;;;;;;;;;;5102266;28;20043;-67
2023/09/06 11:28:44;;;;;;;3.50;1.88;;;;;;;;;;5101157;28;20043;-66
2023/09/06 11:31:21;;;;;;;3.95;1.83;;;;;;;;;;5110213;27;20050;-66
2023/09/06 11:33:53;;;;;;;2.75;1.40;;;;;;;;;;5086834;28;20109;-66
2023/09/06 11:36:21;;;;;;;2.05;1.52;;;;;;;;;;5108241;28;20119;-67
2023/09/06 11:38:48;;;;;;;2.38;1.48;;;;;;;;;;5103695;27;20043;-67
2023/09/06 11:41:16;;;;;;;3.33;1.55;;;;;;;;;;5101248;28;20055;-66
2023/09/06 11:43:48;;;;;;;2.70;1.70;;;;;;;;;;5101046;28;21083;-67
2023/09/06 11:46:17;;;;;;;2.67;1.40;;;;;;;;;;5102373;28;20044;-66
2023/09/06 11:48:44;;;;;;;2.38;1.67;;;;;;;;;;5103082;28;20101;-67
2023/09/06 11:51:13;;;;;;;2.22;1.65;;;;;;;;;;5104146;28;20055;-67
2023/09/06 11:53:45;;;;;;;2.45;1.73;;;;;;;;;;5105942;28;20075;-67
2023/09/06 11:56:13;;;;;;;2.00;1.58;;;;;;;;;;5079524;28;20071;-67
2023/09/06 11:58:45;;;;;;;2.10;1.60;;;;;;;;;;5100970;28;20048;-67
2023/09/06 12:01:19;;;;;;;1.48;1.38;;;;;;;;;;5102630;28;20051;-67
2023/09/06 12:03:48;;;;;;;3.83;1.70;;;;;;;;;;5102171;28;20044;-67
2023/09/06 12:06:15;;;;;;;3.10;1.42;;;;;;;;;;5101950;28;20071;-67
2023/09/06 12:08:43;;;;;;;2.80;1.50;;;;;;;;;;5099081;28;20050;-67
2023/09/06 12:11:15;;;;;;;1.75;1.65;;;;;;;;;;5095744;28;20054;-68
2023/09/06 12:13:42;;;;;;;2.33;1.60;;;;;;;;;;5098453;27;20507;-68
2023/09/06 12:16:11;;;;;;;1.90;1.50;;;;;;;;;;5108936;28;20040;-68
2023/09/06 12:18:40;;;;;;;1.58;1.48;;;;;;;;;;5105714;28;20071;-68
2023/09/06 12:21:07;;;;;;;1.50;1.40;;;;;;;;;;5107840;27;20436;-68
2023/09/06 12:23:35;;;;;;;2.28;1.70;;;;;;;;;;5109000;28;20048;-67
2023/09/06 12:26:04;;;;;;;1.67;1.42;;;;;;;;;;5108183;28;20056;-67
2023/09/06 12:28:32;;;;;;;2.35;1.95;;;;;;;;;;5108170;28;20048;-67
2023/09/06 12:31:02;;;;;;;4.40;1.60;;;;;;;;;;5098948;27;20052;-68
2023/09/06 12:33:30;;;;;;;1.63;1.48;;;;;;;;;;5096064;27;20088;-67
2023/09/06 12:36:03;;;;;;;2.17;1.60;;;;;;;;;;5087909;28;20048;-68
2023/09/06 12:38:32;;;;;;;1.50;1.40;;;;;;;;;;5110668;27;20127;-67
2023/09/06 12:41:00;;;;;;;1.60;1.50;;;;;;;;;;5099026;27;20071;-68
2023/09/06 12:43:29;;;;;;;2.88;2.00;;;;;;;;;;5104046;28;20056;-68
2023/09/06 12:45:57;;;;;;;1.88;1.63;;;;;;;;;;5111392;28;20087;-68
2023/09/06 12:48:25;;;;;;;2.95;1.65;;;;;;;;;;5109564;28;20429;-67
2023/09/06 12:50:52;;;;;;;3.33;1.60;;;;;;;;;;5100972;28;20051;-68
2023/09/06 12:53:23;;;;;;;2.00;1.60;;;;;;;;;;5106216;28;20048;-68
2023/09/06 12:55:50;;;;;;;3.78;1.70;;;;;;;;;;5110440;28;20048;-68
2023/09/06 12:58:17;;;;;;;3.40;1.80;;;;;;;;;;5089408;28;20043;-68
2023/09/06 13:00:45;;;;;;;1.60;1.50;;;;;;;;;;5101754;27;20403;-67
2023/09/06 13:03:12;;;;;;;3.00;1.60;;;;;;;;;;5109314;28;20046;-68
2023/09/06 13:05:41;;;;;;;3.00;1.73;;;;;;;;;;5110520;28;20062;-68
2023/09/06 13:08:08;;;;;;;2.33;1.90;;;;;;;;;;5109421;28;20110;-67
2023/09/06 13:10:37;;;;;;;6.07;1.80;;;;;;;;;;5103692;28;20055;-67
2023/09/06 13:13:04;;;;;;;2.15;1.70;;;;;;;;;;5101203;28;20570;-67
2023/09/06 13:15:32;;;;;;;2.35;1.80;;;;;;;;;;5096163;28;20483;-67
2023/09/06 13:17:59;;;;;;;1.75;1.60;;;;;;;;;;5110803;28;20130;-67
2023/09/06 13:20:27;;;;;;;2.47;1.88;;;;;;;;;;5106583;28;20403;-67
2023/09/06 13:22:54;;;;;;;5.05;1.77;;;;;;;;;;5077167;28;20055;-68
2023/09/06 13:25:21;;;;;;;2.20;2.00;;;;;;;;;;5095568;28;20455;-68
2023/09/06 13:27:50;;;;;;;2.50;1.80;;;;;;;;;;5108887;27;20533;-67
2023/09/06 13:30:17;;;;;;;3.17;2.33;;;;;;;;;;5109341;28;20048;-68
2023/09/06 13:32:44;;;;;;;1.80;1.70;;;;;;;;;;5067343;28;20053;-68
2023/09/06 13:35:12;;;;;;;2.85;1.92;;;;;;;;;;5057175;28;20056;-67
2023/09/06 13:37:39;;;;;;;1.98;1.65;;;;;;;;;;5064091;28;20118;-66
2023/09/06 13:40:08;;;;;;;2.97;1.90;;;;;;;;;;5065864;28;20052;-67
2023/09/06 13:42:35;;;;;;;1.83;1.70;;;;;;;;;;5069608;28;20110;-66
2023/09/06 13:45:04;;;;;;;2.00;1.77;;;;;;;;;;5066272;28;20048;-66
2023/09/06 13:47:31;;;;;;;2.17;1.90;;;;;;;;;;5064166;28;20053;-66
2023/09/06 13:49:59;;;;;;;2.20;1.70;;;;;;;;;;5070709;28;20055;-66
2023/09/06 13:52:26;;;;;;;2.15;1.88;;;;;;;;;;5060164;28;20049;-66
2023/09/06 13:54:53;;;;;;;3.47;1.73;;;;;;;;;;5063291;28;20045;-65
2023/09/06 13:57:21;;;;;;;3.05;2.00;;;;;;;;;;5067972;28;20527;-66
2023/09/06 13:59:48;;;;;;;2.10;1.90;;;;;;;;;;5076942;28;20048;-66
2023/09/06 14:02:16;;;;;;;2.00;1.90;;;;;;;;;;5077349;28;20502;-66
2023/09/06 14:04:44;;;;;;;2.33;1.67;;;;;;;;;;5061985;28;20048;-67
2023/09/06 14:07:11;;;;;;;3.35;1.92;;;;;;;;;;5065967;28;20052;-66
2023/09/06 14:09:38;;;;;;;2.33;2.03;;;;;;;;;;5068293;28;20118;-66
2023/09/06 14:12:06;;;;;;;1.95;1.80;;;;;;;;;;5057158;28;20056;-66
2023/09/06 14:14:33;;;;;;;2.85;2.05;;;;;;;;;;5061198;28;20044;-66
2023/09/06 14:17:00;;;;;;;2.10;1.90;;;;;;;;;;5061813;28;20049;-66
2023/09/06 14:19:31;;;;;;;2.10;1.80;;;;;;;;;;5065275;28;20044;-66
2023/09/06 14:21:58;;;;;;;1.90;1.70;;;;;;;;;;5061183;28;20049;-66
2023/09/06 14:24:26;;;;;;;1.90;1.80;;;;;;;;;;5054914;28;20048;-66
2023/09/06 14:26:53;;;;;;;2.08;1.80;;;;;;;;;;5067437;28;20052;-66
2023/09/06 14:29:20;;;;;;;2.03;1.83;;;;;;;;;;5059778;28;20068;-66
2023/09/06 14:31:47;;;;;;;1.90;1.70;;;;;;;;;;5085089;28;20051;-66
2023/09/06 14:34:15;;;;;;;2.38;2.15;;;;;;;;;;5103765;28;20135;-66
2023/09/06 14:36:44;;;;;;;3.05;1.90;;;;;;;;;;5110513;27;20047;-68
2023/09/06 14:39:19;;;;;;;2.25;1.90;;;;;;;;;;5105423;28;20040;-66
2023/09/06 14:41:50;;;;;;;2.75;2.28;;;;;;;;;;5102727;27;20336;-66
2023/09/06 14:44:17;;;;;;;2.10;1.90;;;;;;;;;;5100076;27;20043;-67
2023/09/06 14:46:45;;;;;;;2.45;2.17;;;;;;;;;;5087373;28;20059;-68
2023/09/06 14:49:13;;;;;;;2.30;1.92;;;;;;;;;;5102082;27;20052;-67